Time;durP1;ratioP1;P1;durP2;ratioP2;P2;SDS_P1;SDS_P2;PMS_P1;PMS_P2;Temp;Humidity;BMP_temperature;BMP_pressure;BME280_temperature;BME280_humidity;BME280_pressure;Samples;Min_cycle;Max_cycle;Signal;HPM_P1;HPM_P2
2022/04/21 00:01:22;;;;;;;8.97;5.00;;;;;;;-150.27;100.00;61272.81;5239865;28;20365;-67
2022/04/21 00:03:53;;;;;;;6.07;5.40;;;;;;;-150.27;100.00;61272.81;5242283;28;20484;-67
2022/04/21 00:06:25;;;;;;;7.53;5.07;;;;;;;-150.27;100.00;61272.81;5239555;28;20033;-67
2022/04/21 00:08:56;;;;;;;7.23;4.57;;;;;;;-150.27;100.00;61272.81;5244435;28;20025;-67
2022/04/21 00:11:27;;;;;;;12.17;5.50;;;;;;;-150.27;100.00;61272.81;5241535;28;20423;-67
2022/04/21 00:13:58;;;;;;;8.33;4.97;;;;;;;-150.27;100.00;61272.81;5240841;28;20141;-67
2022/04/21 00:16:30;;;;;;;8.63;4.83;;;;;;;-150.27;100.00;61272.81;5244131;28;20041;-67
2022/04/21 00:19:01;;;;;;;10.20;4.77;;;;;;;-150.27;100.00;61272.81;5249776;28;20036;-67
2022/04/21 00:23:25;;;;;;;9.07;4.87;;;;;;;-150.27;100.00;61272.81;5249094;28;20021;-67
2022/04/21 00:24:23;;;;;;;6.93;4.40;;;;;;;-150.27;100.00;61272.81;5248809;28;20029;-67
2022/04/21 00:26:54;;;;;;;7.07;4.93;;;;;;;-150.27;100.00;61272.81;5244835;28;20021;-67
2022/04/21 00:29:26;;;;;;;10.83;4.53;;;;;;;-150.27;100.00;61272.81;5248867;28;20036;-67
2022/04/21 00:31:57;;;;;;;5.30;4.17;;;;;;;-150.27;100.00;61272.81;5248143;28;20423;-67
2022/04/21 00:34:29;;;;;;;6.73;4.43;;;;;;;-150.27;100.00;61272.81;5249397;28;20052;-67
2022/04/21 00:37:00;;;;;;;5.23;3.93;;;;;;;-150.27;100.00;61272.81;5244086;28;20053;-67
2022/04/21 00:39:32;;;;;;;5.60;4.67;;;;;;;-150.27;100.00;61272.81;5226314;28;20118;-67
2022/04/21 00:42:03;;;;;;;9.13;4.60;;;;;;;-150.27;100.00;61272.81;5249587;28;20120;-67
2022/04/21 00:44:35;;;;;;;6.70;4.63;;;;;;;-150.27;100.00;61272.81;5249607;28;20040;-67
2022/04/21 00:47:07;;;;;;;6.70;4.80;;;;;;;-150.27;100.00;61272.81;5249008;28;20033;-67
2022/04/21 00:49:39;;;;;;;7.43;4.27;;;;;;;-150.27;100.00;61272.81;5241835;28;20032;-67
2022/04/21 00:52:10;;;;;;;7.80;4.70;;;;;;;-150.27;100.00;61272.81;5245434;28;20033;-67
2022/04/21 00:54:42;;;;;;;10.70;5.10;;;;;;;-150.27;100.00;61272.81;5248695;28;20071;-67
2022/04/21 00:57:13;;;;;;;6.00;4.50;;;;;;;-150.27;100.00;61272.81;5202330;28;20128;-67
2022/04/21 00:59:46;;;;;;;6.10;4.10;;;;;;;-150.27;100.00;61272.81;5249116;28;20025;-67
2022/04/21 01:05:08;;;;;;;9.80;5.07;;;;;;;-150.27;100.00;61272.81;5248708;28;20484;-69
2022/04/21 01:07:40;;;;;;;8.10;4.80;;;;;;;-150.27;100.00;61272.81;5248653;28;20383;-67
2022/04/21 01:10:12;;;;;;;6.33;4.63;;;;;;;-150.27;100.00;61272.81;5242749;28;20106;-67
2022/04/21 01:12:43;;;;;;;9.57;5.03;;;;;;;-150.27;100.00;61272.81;5248319;28;20785;-67
2022/04/21 01:15:14;;;;;;;8.53;4.20;;;;;;;-150.27;100.00;61272.81;5247559;28;20471;-67
2022/04/21 01:17:46;;;;;;;6.03;4.90;;;;;;;-150.27;100.00;61272.81;5248990;28;20414;-68
2022/04/21 01:20:24;;;;;;;6.70;5.10;;;;;;;-150.27;100.00;61272.81;5244068;28;20909;-67
2022/04/21 01:22:55;;;;;;;6.97;4.57;;;;;;;-150.27;100.00;61272.81;5247465;28;20055;-67
2022/04/21 01:25:27;;;;;;;6.53;4.40;;;;;;;-150.27;100.00;61272.81;5248422;28;20518;-67
2022/04/21 01:28:00;;;;;;;7.63;5.20;;;;;;;-150.27;100.00;61272.81;5251236;28;20425;-67
2022/04/21 01:30:32;;;;;;;11.63;5.83;;;;;;;-150.27;100.00;61272.81;5253598;28;20111;-67
2022/04/21 01:33:03;;;;;;;6.97;5.37;;;;;;;-150.27;100.00;61272.81;5252752;28;20124;-67
2022/04/21 01:35:35;;;;;;;8.50;5.47;;;;;;;-150.27;100.00;61272.81;5255269;28;20025;-67
2022/04/21 01:41:09;;;;;;;5.97;4.77;;;;;;;-150.27;100.00;61272.81;5251886;28;20060;-67
2022/04/21 01:43:43;;;;;;;6.80;5.47;;;;;;;-150.27;100.00;61272.81;5251642;28;20031;-67
2022/04/21 01:46:14;;;;;;;;;;;;;;;-150.27;100.00;61272.81;5245340;28;20037;-67
2022/04/21 01:48:45;;;;;;;8.13;5.60;;;;;;;-150.27;100.00;61272.81;5251284;28;19916;-67
2022/04/21 01:51:17;;;;;;;7.03;5.43;;;;;;;-150.27;100.00;61272.81;5252308;28;20479;-67
2022/04/21 01:53:48;;;;;;;9.57;4.90;;;;;;;-150.27;100.00;61272.81;5234120;28;20063;-67
2022/04/21 01:56:19;;;;;;;6.30;4.77;;;;;;;-150.27;100.00;61272.81;5252460;28;20067;-67
2022/04/21 01:58:50;;;;;;;6.03;4.87;;;;;;;-150.27;100.00;61272.81;5251323;28;20021;-69
2022/04/21 02:01:22;;;;;;;10.20;6.03;;;;;;;-150.27;100.00;61272.81;5252884;28;20079;-67
2022/04/21 02:03:54;;;;;;;10.33;5.30;;;;;;;-150.27;100.00;61272.81;5251362;28;20049;-67
2022/04/21 02:06:25;;;;;;;11.27;4.90;;;;;;;-150.27;100.00;61272.81;5253240;28;20083;-67
2022/04/21 02:08:58;;;;;;;8.40;5.00;;;;;;;-150.27;100.00;61272.81;5233547;28;20094;-67
2022/04/21 02:11:29;;;;;;;12.53;5.77;;;;;;;-150.27;100.00;61272.81;5249936;28;20049;-67
2022/04/21 02:14:01;;;;;;;9.30;5.30;;;;;;;-150.27;100.00;61272.81;5249252;28;20056;-67
2022/04/21 02:16:32;;;;;;;6.83;5.23;;;;;;;-150.27;100.00;61272.81;5252175;28;20514;-67
2022/04/21 02:19:03;;;;;;;8.03;5.93;;;;;;;-150.27;100.00;61272.81;5252018;28;20040;-67
2022/04/21 02:21:34;;;;;;;8.53;5.90;;;;;;;-150.27;100.00;61272.81;5250643;28;20029;-67
2022/04/21 02:24:06;;;;;;;9.57;5.37;;;;;;;-150.27;100.00;61272.81;5251620;28;20028;-67
2022/04/21 02:26:37;;;;;;;9.13;5.43;;;;;;;-150.27;100.00;61272.81;5253749;28;20032;-67
2022/04/21 02:29:08;;;;;;;8.53;6.00;;;;;;;-150.27;100.00;61272.81;5253815;28;20386;-67
2022/04/21 02:31:40;;;;;;;9.53;5.67;;;;;;;-150.27;100.00;61272.81;5251640;28;20051;-67
2022/04/21 02:34:11;;;;;;;8.53;5.50;;;;;;;-150.27;100.00;61272.81;5251045;28;20403;-67
2022/04/21 02:36:42;;;;;;;8.90;5.50;;;;;;;-150.27;100.00;61272.81;5252203;28;20744;-67
2022/04/21 02:39:14;;;;;;;6.67;5.33;;;;;;;-150.27;100.00;61272.81;5250677;28;20041;-67
2022/04/21 02:41:45;;;;;;;10.17;5.93;;;;;;;-150.27;100.00;61272.81;5251328;28;20637;-67
2022/04/21 02:44:17;;;;;;;9.67;5.60;;;;;;;-150.27;100.00;61272.81;5252074;28;20464;-67
2022/04/21 02:46:48;;;;;;;7.67;5.57;;;;;;;-150.27;100.00;61272.81;5250653;28;20102;-67
2022/04/21 02:49:19;;;;;;;10.50;5.47;;;;;;;-150.27;100.00;61272.81;5244541;28;20040;-67
2022/04/21 02:51:51;;;;;;;8.03;5.03;;;;;;;-150.27;100.00;61272.81;5238375;28;20037;-68
2022/04/21 02:57:21;;;;;;;8.37;5.90;;;;;;;-150.27;100.00;61272.81;5238213;28;20112;-67
2022/04/21 03:00:00;;;;;;;11.13;5.53;;;;;;;-150.27;100.00;61272.81;5234787;28;20034;-67
2022/04/21 03:02:31;;;;;;;13.60;6.13;;;;;;;-150.27;100.00;61272.81;5243439;28;20594;-67
2022/04/21 03:05:02;;;;;;;8.13;5.50;;;;;;;-150.27;100.00;61272.81;5239182;28;20079;-67
2022/04/21 03:07:34;;;;;;;10.90;5.87;;;;;;;-150.27;100.00;61272.81;5219257;28;20042;-67
2022/04/21 03:10:06;;;;;;;6.27;5.27;;;;;;;-150.27;100.00;61272.81;5238592;28;20127;-68
2022/04/21 03:12:37;;;;;;;7.07;5.40;;;;;;;-150.27;100.00;61272.81;5241162;28;20029;-68
2022/04/21 03:15:11;;;;;;;8.13;5.63;;;;;;;-150.27;100.00;61272.81;5235479;28;20499;-68
2022/04/21 03:17:42;;;;;;;8.27;5.60;;;;;;;-150.27;100.00;61272.81;5241330;28;20467;-67
2022/04/21 03:24:18;;;;;;;8.60;5.17;;;;;;;-150.27;100.00;61272.81;5250814;28;20123;-67
2022/04/21 03:25:55;;;;;;;9.20;5.70;;;;;;;-150.27;100.00;61272.81;5250890;28;20045;-67
2022/04/21 03:28:26;;;;;;;9.67;5.80;;;;;;;-150.27;100.00;61272.81;5250178;28;20033;-68
2022/04/21 03:30:57;;;;;;;11.23;5.80;;;;;;;-150.27;100.00;61272.81;5241099;28;20137;-67
2022/04/21 03:33:28;;;;;;;8.03;6.00;;;;;;;-150.27;100.00;61272.81;5248991;28;20380;-68
2022/04/21 03:35:59;;;;;;;7.43;5.07;;;;;;;-150.27;100.00;61272.81;5249401;28;20025;-67
2022/04/21 03:38:31;;;;;;;10.97;6.17;;;;;;;-150.27;100.00;61272.81;5249764;28;20031;-67
2022/04/21 03:41:02;;;;;;;10.03;5.47;;;;;;;-150.27;100.00;61272.81;5250444;28;20033;-67
2022/04/21 03:43:33;;;;;;;9.33;5.70;;;;;;;-150.27;100.00;61272.81;5250283;28;20029;-67
2022/04/21 03:46:05;;;;;;;9.43;5.60;;;;;;;-150.27;100.00;61272.81;5250196;28;20036;-67
2022/04/21 03:48:36;;;;;;;10.50;5.40;;;;;;;-150.27;100.00;61272.81;5250181;28;20021;-69
2022/04/21 03:51:09;;;;;;;7.53;5.50;;;;;;;-150.27;100.00;61272.81;5250410;28;20032;-69
2022/04/21 03:53:41;;;;;;;12.30;6.27;;;;;;;-150.27;100.00;61272.81;5239287;28;20025;-69
2022/04/21 03:56:12;;;;;;;10.33;5.47;;;;;;;-150.27;100.00;61272.81;5250808;28;20497;-69
2022/04/21 03:58:43;;;;;;;6.77;5.50;;;;;;;-150.27;100.00;61272.81;5249838;28;20429;-69
2022/04/21 04:01:15;;;;;;;9.23;5.50;;;;;;;-150.27;100.00;61272.81;5249678;28;20495;-69
2022/04/21 04:03:46;;;;;;;8.73;5.70;;;;;;;-150.27;100.00;61272.81;5234813;28;20021;-69
2022/04/21 04:11:59;;;;;;;12.73;5.20;;;;;;;-150.27;100.00;61272.81;5245941;28;20053;-69
2022/04/21 04:14:30;;;;;;;9.40;5.77;;;;;;;-150.27;100.00;61272.81;5247848;28;20127;-69
2022/04/21 04:17:02;;;;;;;6.47;5.80;;;;;;;-150.27;100.00;61272.81;5236209;28;20123;-69
2022/04/21 04:19:35;;;;;;;7.93;5.83;;;;;;;-150.27;100.00;61272.81;5247056;28;20033;-69
2022/04/21 04:22:06;;;;;;;11.23;5.77;;;;;;;-150.27;100.00;61272.81;5239209;28;20103;-69
2022/04/21 04:24:37;;;;;;;10.00;6.23;;;;;;;-150.27;100.00;61272.81;5232636;28;20036;-69
2022/04/21 04:27:09;;;;;;;13.47;6.47;;;;;;;-150.27;100.00;61272.81;5231629;28;20544;-69
2022/04/21 04:29:40;;;;;;;9.73;6.27;;;;;;;-150.27;100.00;61272.81;5249670;28;20037;-69
2022/04/21 04:32:11;;;;;;;10.20;6.13;;;;;;;-150.27;100.00;61272.81;5247982;28;20029;-68
2022/04/21 04:34:43;;;;;;;10.23;6.20;;;;;;;-150.27;100.00;61272.81;5249675;28;20082;-68
2022/04/21 04:37:14;;;;;;;16.13;6.60;;;;;;;-150.27;100.00;61272.81;5235838;28;20231;-67
2022/04/21 04:39:46;;;;;;;9.53;6.43;;;;;;;-150.27;100.00;61272.81;5222001;28;20034;-68
2022/04/21 04:42:17;;;;;;;9.47;6.10;;;;;;;-150.27;100.00;61272.81;5242950;28;20144;-67
2022/04/21 04:46:34;;;;;;;13.80;6.13;;;;;;;-150.27;100.00;61272.81;5226793;28;20036;-67
2022/04/21 04:47:42;;;;;;;10.50;6.43;;;;;;;-150.27;100.00;61272.81;5245653;28;20438;-67
2022/04/21 04:50:13;;;;;;;13.33;6.87;;;;;;;-150.27;100.00;61272.81;5240238;28;20062;-66
2022/04/21 04:52:45;;;;;;;15.57;6.97;;;;;;;-150.27;100.00;61272.81;5241929;28;20037;-67
2022/04/21 04:55:16;;;;;;;11.87;6.37;;;;;;;-150.27;100.00;61272.81;5243717;28;20037;-67
2022/04/21 04:57:49;;;;;;;10.17;6.37;;;;;;;-150.27;100.00;61272.81;5239388;28;20558;-68
2022/04/21 05:00:20;;;;;;;10.37;6.13;;;;;;;-150.27;100.00;61272.81;5239628;28;20032;-67
2022/04/21 05:02:51;;;;;;;10.07;6.13;;;;;;;-150.27;100.00;61272.81;5247196;28;20472;-68
2022/04/21 05:05:23;;;;;;;8.40;6.03;;;;;;;-150.27;100.00;61272.81;5248248;28;20507;-69
2022/04/21 05:07:54;;;;;;;7.27;5.47;;;;;;;-150.27;100.00;61272.81;5245777;28;20036;-68
2022/04/21 05:10:28;;;;;;;7.93;5.53;;;;;;;-150.27;100.00;61272.81;5244401;28;20045;-68
2022/04/21 05:13:00;;;;;;;10.10;6.35;;;;;;;-150.27;100.00;61272.81;5247095;28;20043;-67
2022/04/21 05:15:31;;;;;;;7.13;5.57;;;;;;;-150.27;100.00;61272.81;5248016;28;20033;-66
2022/04/21 05:18:02;;;;;;;10.83;5.70;;;;;;;-150.27;100.00;61272.81;5249364;28;20040;-66
2022/04/21 05:20:34;;;;;;;9.67;6.27;;;;;;;-150.27;100.00;61272.81;5249828;28;20931;-67
2022/04/21 05:23:06;;;;;;;9.90;6.23;;;;;;;-150.27;100.00;61272.81;5247594;28;20060;-66
2022/04/21 05:25:38;;;;;;;12.17;5.87;;;;;;;-150.27;100.00;61272.81;5248568;28;20060;-66
2022/04/21 05:28:10;;;;;;;13.07;6.37;;;;;;;-150.27;100.00;61272.81;5231094;28;20033;-69
2022/04/21 05:30:58;;;;;;;9.67;6.33;;;;;;;-150.27;100.00;61272.81;5212458;28;20025;-68
2022/04/21 05:33:30;;;;;;;10.23;6.60;;;;;;;-150.27;100.00;61272.81;5220100;28;20479;-68
2022/04/21 05:36:03;;;;;;;10.93;5.90;;;;;;;-150.27;100.00;61272.81;5219593;28;20030;-68
2022/04/21 05:38:35;;;;;;;11.20;6.83;;;;;;;-150.27;100.00;61272.81;5231298;28;20444;-68
2022/04/21 05:41:07;;;;;;;13.10;6.60;;;;;;;-150.27;100.00;61272.81;5238167;28;20029;-68
2022/04/21 05:43:46;;;;;;;7.70;6.60;;;;;;;-150.27;100.00;61272.81;5238228;28;20033;-68
2022/04/21 05:46:17;;;;;;;9.27;6.10;;;;;;;-150.27;100.00;61272.81;5240651;28;20502;-68
2022/04/21 05:48:49;;;;;;;10.93;6.27;;;;;;;-150.27;100.00;61272.81;5237730;28;20033;-68
2022/04/21 05:51:21;;;;;;;12.50;6.60;;;;;;;-150.27;100.00;61272.81;5232817;28;20037;-68
2022/04/21 05:53:53;;;;;;;10.70;6.13;;;;;;;-150.27;100.00;61272.81;5233648;28;20037;-69
2022/04/21 05:56:24;;;;;;;6.97;6.07;;;;;;;-150.27;100.00;61272.81;5230277;28;20173;-69
2022/04/21 05:58:56;;;;;;;12.57;6.57;;;;;;;-150.27;100.00;61272.81;5240735;28;20036;-69
2022/04/21 06:01:27;;;;;;;8.83;6.53;;;;;;;-150.27;100.00;61272.81;5241916;28;20030;-70
2022/04/21 06:03:59;;;;;;;8.73;5.70;;;;;;;-150.27;100.00;61272.81;5233265;28;20084;-70
2022/04/21 06:06:30;;;;;;;8.67;5.40;;;;;;;-150.27;100.00;61272.81;5242646;28;20029;-68
2022/04/21 06:09:02;;;;;;;9.97;6.30;;;;;;;-150.27;100.00;61272.81;5248274;28;20571;-68
2022/04/21 06:11:35;;;;;;;9.17;6.73;;;;;;;-150.27;100.00;61272.81;5239473;28;20083;-68
2022/04/21 06:14:06;;;;;;;9.90;6.93;;;;;;;-150.27;100.00;61272.81;5226562;28;20037;-68
2022/04/21 06:16:37;;;;;;;10.03;6.47;;;;;;;-150.27;100.00;61272.81;5241917;28;20088;-68
2022/04/21 06:19:08;;;;;;;8.87;6.90;;;;;;;-150.27;100.00;61272.81;5244799;28;20029;-70
2022/04/21 06:21:40;;;;;;;12.87;6.83;;;;;;;-150.27;100.00;61272.81;5232632;28;20435;-69
2022/04/21 06:24:11;;;;;;;11.67;7.37;;;;;;;-150.27;100.00;61272.81;5248919;28;20495;-75
2022/04/21 06:26:42;;;;;;;14.70;6.27;;;;;;;-150.27;100.00;61272.81;5250291;28;20162;-69
2022/04/21 06:29:14;;;;;;;14.90;7.13;;;;;;;-150.27;100.00;61272.81;5243851;28;20021;-69
2022/04/21 06:31:45;;;;;;;9.90;6.30;;;;;;;-150.27;100.00;61272.81;5248528;28;20407;-68
2022/04/21 06:34:16;;;;;;;13.20;7.00;;;;;;;-150.27;100.00;61272.81;5240657;28;20443;-69
2022/04/21 06:36:48;;;;;;;9.00;5.80;;;;;;;-150.27;100.00;61272.81;5242187;28;20029;-69
2022/04/21 06:39:20;;;;;;;10.83;6.17;;;;;;;-150.27;100.00;61272.81;5245831;28;20746;-70
2022/04/21 06:41:51;;;;;;;11.33;6.50;;;;;;;-150.27;100.00;61272.81;5246978;28;20029;-69
2022/04/21 06:50:02;;;;;;;9.27;6.03;;;;;;;-150.27;100.00;61272.81;5244761;28;20037;-69
2022/04/21 06:52:34;;;;;;;11.70;6.63;;;;;;;-150.27;100.00;61272.81;5243802;28;20036;-68
2022/04/21 06:55:05;;;;;;;9.70;6.30;;;;;;;-150.27;100.00;61272.81;5240051;28;20041;-69
2022/04/21 06:57:36;;;;;;;8.50;6.73;;;;;;;-150.27;100.00;61272.81;5227395;28;20035;-69
2022/04/21 07:00:09;;;;;;;10.40;7.00;;;;;;;-150.27;100.00;61272.81;5240599;28;20061;-69
2022/04/21 07:02:41;;;;;;;10.83;6.03;;;;;;;-150.27;100.00;61272.81;5239925;28;20548;-68
2022/04/21 07:05:13;;;;;;;10.70;6.53;;;;;;;-150.27;100.00;61272.81;5249863;28;20029;-70
2022/04/21 07:07:45;;;;;;;11.53;6.73;;;;;;;-150.27;100.00;61272.81;5235940;28;20025;-70
2022/04/21 07:10:17;;;;;;;11.37;6.20;;;;;;;-150.27;100.00;61272.81;5249187;28;20045;-69
2022/04/21 07:12:48;;;;;;;10.70;5.93;;;;;;;-150.27;100.00;61272.81;5231413;28;20032;-68
2022/04/21 07:15:20;;;;;;;8.60;5.60;;;;;;;-150.27;100.00;61272.81;5240524;28;20601;-68
2022/04/21 07:17:52;;;;;;;13.83;6.57;;;;;;;-150.27;100.00;61272.81;5249544;28;20082;-68
2022/04/21 07:20:23;;;;;;;13.43;6.70;;;;;;;-150.27;100.00;61272.81;5249190;28;20052;-69
2022/04/21 07:22:55;;;;;;;11.47;6.83;;;;;;;-150.27;100.00;61272.81;5243227;28;20025;-68
2022/04/21 07:25:27;;;;;;;9.37;5.97;;;;;;;-150.27;100.00;61272.81;5248738;28;20120;-69
2022/04/21 07:27:58;;;;;;;9.33;5.47;;;;;;;-150.27;100.00;61272.81;5228486;28;20040;-69
2022/04/21 07:30:29;;;;;;;6.70;5.80;;;;;;;-150.27;100.00;61272.81;5224655;28;20540;-70
2022/04/21 07:33:01;;;;;;;11.47;7.33;;;;;;;-150.27;100.00;61272.81;5242876;28;20028;-67
2022/04/21 07:35:33;;;;;;;21.97;6.73;;;;;;;-150.27;100.00;61272.81;5241402;28;20040;-68
2022/04/21 07:38:05;;;;;;;12.83;6.73;;;;;;;-150.27;100.00;61272.81;5239119;28;20047;-68
2022/04/21 07:40:38;;;;;;;8.17;6.07;;;;;;;-150.27;100.00;61272.81;5231820;28;20494;-69
2022/04/21 07:43:09;;;;;;;8.73;5.70;;;;;;;-150.27;100.00;61272.81;5231508;28;20032;-69
2022/04/21 07:45:41;;;;;;;8.73;5.10;;;;;;;-150.27;100.00;61272.81;5244241;28;20099;-70
2022/04/21 07:48:12;;;;;;;8.80;5.03;;;;;;;-150.27;100.00;61272.81;5241897;28;20025;-70
2022/04/21 07:50:45;;;;;;;9.10;4.97;;;;;;;-150.27;100.00;61272.81;5233901;28;20021;-70
2022/04/21 07:53:19;;;;;;;7.97;4.90;;;;;;;-150.27;100.00;61272.81;5232349;28;20057;-70
2022/04/21 07:55:50;;;;;;;8.85;5.40;;;;;;;-150.27;100.00;61272.81;5234161;28;20427;-70
2022/04/21 07:58:26;;;;;;;6.53;4.10;;;;;;;-150.27;100.00;61272.81;5226962;28;20024;-70
2022/04/21 08:00:58;;;;;;;9.30;4.60;;;;;;;-150.27;100.00;61272.81;5241486;28;20476;-68
2022/04/21 08:03:35;;;;;;;7.97;4.50;;;;;;;-150.27;100.00;61272.81;5234307;28;20032;-68
2022/04/21 08:06:06;;;;;;;11.33;4.80;;;;;;;-150.27;100.00;61272.81;5235893;28;20024;-69
2022/04/21 08:08:40;;;;;;;13.13;5.27;;;;;;;-150.27;100.00;61272.81;5243880;28;20503;-69
2022/04/21 08:11:11;;;;;;;8.18;5.30;;;;;;;-150.27;100.00;61272.81;5236410;28;20093;-69
2022/04/21 08:13:42;;;;;;;11.68;5.18;;;;;;;-150.27;100.00;61272.81;5236958;28;20107;-70
2022/04/21 08:16:14;;;;;;;10.27;5.18;;;;;;;-150.27;100.00;61272.81;5229539;28;20348;-70
2022/04/21 08:18:50;;;;;;;8.63;4.28;;;;;;;-150.27;100.00;61272.81;5241208;28;20098;-70
2022/04/21 08:21:21;;;;;;;10.18;4.47;;;;;;;-150.27;100.00;61272.81;5231271;28;20044;-69
2022/04/21 08:23:52;;;;;;;9.13;4.10;;;;;;;-150.27;100.00;61272.81;5246989;28;20484;-70
2022/04/21 08:32:45;;;;;;;13.35;3.65;;;;;;;-150.27;100.00;61272.81;5248705;28;20476;-70
2022/04/21 08:35:17;;;;;;;6.05;4.45;;;;;;;-150.27;100.00;61272.81;5234027;28;20036;-70
2022/04/21 08:37:50;;;;;;;6.43;4.00;;;;;;;-150.27;100.00;61272.81;5247061;28;20118;-70
2022/04/21 08:40:23;;;;;;;5.97;3.67;;;;;;;-150.27;100.00;61272.81;5248190;28;20044;-69
2022/04/21 08:42:55;;;;;;;6.53;5.00;;;;;;;-150.27;100.00;61272.81;5229923;28;20096;-70
2022/04/21 08:45:29;;;;;;;8.07;4.18;;;;;;;-150.27;100.00;61272.81;5245789;28;20048;-70
2022/04/21 08:48:03;;;;;;;6.20;4.38;;;;;;;-150.27;100.00;61272.81;5247966;28;20150;-70
2022/04/21 08:50:36;;;;;;;7.38;4.05;;;;;;;-150.27;100.00;61272.81;5238812;28;20024;-70
2022/04/21 08:53:10;;;;;;;8.68;4.28;;;;;;;-150.27;100.00;61272.81;5247122;28;20434;-70
2022/04/21 08:55:42;;;;;;;6.50;3.45;;;;;;;-150.27;100.00;61272.81;5248273;28;20032;-70
2022/04/21 08:58:13;;;;;;;9.85;4.15;;;;;;;-150.27;100.00;61272.81;5248557;28;20279;-71
2022/04/21 09:00:45;;;;;;;6.35;3.55;;;;;;;-150.27;100.00;61272.81;5248171;28;20092;-69
2022/04/21 09:03:16;;;;;;;8.90;3.55;;;;;;;-150.27;100.00;61272.81;5249261;28;20691;-69
2022/04/21 09:05:48;;;;;;;4.25;3.03;;;;;;;-150.27;100.00;61272.81;5247214;28;20021;-69
2022/04/21 09:08:26;;;;;;;8.82;3.35;;;;;;;-150.27;100.00;61272.81;5229325;28;20025;-69
2022/04/21 09:11:04;;;;;;;4.97;3.05;;;;;;;-150.27;100.00;61272.81;5240310;28;20051;-70
2022/04/21 09:13:38;;;;;;;5.22;3.03;;;;;;;-150.27;100.00;61272.81;5247818;28;20028;-70
2022/04/21 09:16:12;;;;;;;7.20;3.00;;;;;;;-150.27;100.00;61272.81;5247754;28;20756;-68
2022/04/21 09:18:46;;;;;;;5.88;2.80;;;;;;;-150.27;100.00;61272.81;5230273;28;20741;-70
2022/04/21 09:21:18;;;;;;;7.60;2.50;;;;;;;-150.27;100.00;61272.81;5230007;28;20036;-71
2022/04/21 09:23:49;;;;;;;4.65;2.65;;;;;;;-150.27;100.00;61272.81;5246176;28;20278;-71
2022/04/21 09:26:21;;;;;;;5.93;2.60;;;;;;;-150.27;100.00;61272.81;5248402;28;20029;-70
2022/04/21 09:28:56;;;;;;;8.68;2.50;;;;;;;-150.27;100.00;61272.81;5247570;28;20028;-71
2022/04/21 09:31:29;;;;;;;5.22;2.13;;;;;;;-150.27;100.00;61272.81;5247811;28;20598;-69
2022/04/21 09:34:00;;;;;;;7.63;2.08;;;;;;;-150.27;100.00;61272.81;5247503;28;20032;-69
2022/04/21 09:36:32;;;;;;;3.75;2.03;;;;;;;-150.27;100.00;61272.81;5246812;28;20472;-70
2022/04/21 09:39:03;;;;;;;6.22;2.40;;;;;;;-150.27;100.00;61272.81;5247881;28;20570;-69
2022/04/21 09:41:34;;;;;;;5.32;2.03;;;;;;;-150.27;100.00;61272.81;5247620;28;20025;-69
2022/04/21 09:46:57;;;;;;;5.95;2.58;;;;;;;-150.27;100.00;61272.81;5247210;28;20479;-69
2022/04/21 09:49:36;;;;;;;5.03;2.90;;;;;;;-150.27;100.00;61272.81;5250713;28;20025;-69
2022/04/21 09:52:07;;;;;;;6.15;2.30;;;;;;;-150.27;100.00;61272.81;5250494;28;20032;-71
2022/04/21 09:54:45;;;;;;;4.05;2.58;;;;;;;-150.27;100.00;61272.81;5251606;28;20036;-70
2022/04/21 09:57:30;;;;;;;4.60;2.28;;;;;;;-150.27;100.00;61272.81;5233508;28;20482;-71
2022/04/21 10:00:03;;;;;;;4.38;2.55;;;;;;;-150.27;100.00;61272.81;5245387;28;20045;-69
2022/04/21 10:02:35;;;;;;;6.68;2.58;;;;;;;-150.27;100.00;61272.81;5251456;28;20135;-70
2022/04/21 10:05:08;;;;;;;6.88;2.30;;;;;;;-150.27;100.00;61272.81;5251416;28;20472;-70
2022/04/21 10:07:39;;;;;;;7.13;2.50;;;;;;;-150.27;100.00;61272.81;5232134;28;20470;-70
2022/04/21 10:10:11;;;;;;;2.78;1.90;;;;;;;-150.27;100.00;61272.81;5238749;28;20048;-69
2022/04/21 10:12:42;;;;;;;4.50;2.00;;;;;;;-150.27;100.00;61272.81;5233450;28;20057;-69
2022/04/21 10:15:14;;;;;;;6.80;1.90;;;;;;;-150.27;100.00;61272.81;5251065;28;20480;-70
2022/04/21 10:17:45;;;;;;;8.70;1.98;;;;;;;-150.27;100.00;61272.81;5250563;28;20037;-70
2022/04/21 10:20:17;;;;;;;3.97;1.92;;;;;;;-150.27;100.00;61272.81;5251448;28;20055;-71
2022/04/21 10:22:53;;;;;;;2.75;1.80;;;;;;;-150.27;100.00;61272.81;5250558;28;20044;-70
2022/04/21 10:25:58;;;;;;;6.75;1.85;;;;;;;-150.27;100.00;61272.81;5251372;28;20025;-70
2022/04/21 10:28:39;;;;;;;5.20;1.90;;;;;;;-150.27;100.00;61272.81;5223446;28;20051;-70
2022/04/21 10:31:28;;;;;;;6.60;1.88;;;;;;;-150.27;100.00;61272.81;5237037;28;20029;-70
2022/04/21 10:34:04;;;;;;;3.42;1.90;;;;;;;-150.27;100.00;61272.81;5239909;28;20361;-71
2022/04/21 10:36:47;;;;;;;4.80;1.90;;;;;;;-150.27;100.00;61272.81;5250003;28;20087;-70
2022/04/21 10:39:18;;;;;;;8.63;2.25;;;;;;;-150.27;100.00;61272.81;5232836;28;20025;-70
2022/04/21 10:42:11;;;;;;;3.70;1.90;;;;;;;-150.27;100.00;61272.81;5250198;28;20017;-69
2022/04/21 10:44:46;;;;;;;3.15;1.58;;;;;;;-150.27;100.00;61272.81;5248775;28;20653;-70
2022/04/21 10:47:38;;;;;;;3.35;1.80;;;;;;;-150.27;100.00;61272.81;5249640;28;20033;-69
2022/04/21 10:50:13;;;;;;;5.53;1.90;;;;;;;-150.27;100.00;61272.81;5247729;28;20029;-68
2022/04/21 10:58:36;;;;;;;5.50;1.60;;;;;;;-150.27;100.00;61272.81;5250359;28;20527;-71
2022/04/21 11:01:28;;;;;;;6.38;1.35;;;;;;;-150.27;100.00;61272.81;5249258;28;20029;-71
2022/04/21 11:04:06;;;;;;;11.43;1.92;;;;;;;-150.27;100.00;61272.81;5243232;28;20127;-69
2022/04/21 11:06:41;;;;;;;2.10;1.15;;;;;;;-150.27;100.00;61272.81;5244709;28;20283;-74
2022/04/21 11:09:35;;;;;;;2.90;1.25;;;;;;;-150.27;100.00;61272.81;5231787;28;20025;-79
2022/04/21 11:12:06;;;;;;;;;;;;;;;-150.27;100.00;61272.81;5248279;28;20135;-78
2022/04/21 11:14:39;;;;;;;7.03;2.33;;;;;;;-150.27;100.00;61272.81;5249526;28;19943;-78
2022/04/21 11:17:11;;;;;;;5.22;1.60;;;;;;;-150.27;100.00;61272.81;5248215;28;20029;-80
2022/04/21 11:19:52;;;;;;;3.75;1.60;;;;;;;-150.27;100.00;61272.81;5248559;28;20027;-71
2022/04/21 11:22:39;;;;;;;3.75;1.15;;;;;;;-150.27;100.00;61272.81;5243795;28;20365;-71
2022/04/21 11:25:11;;;;;;;4.78;1.40;;;;;;;-150.27;100.00;61272.81;5229428;28;20033;-71
2022/04/21 11:27:44;;;;;;;5.63;1.73;;;;;;;-150.27;100.00;61272.81;5246264;28;20110;-70
2022/04/21 11:30:16;;;;;;;4.53;1.73;;;;;;;-150.27;100.00;61272.81;5247443;28;20032;-71
2022/04/21 11:32:52;;;;;;;4.75;2.03;;;;;;;-150.27;100.00;61272.81;5242742;28;20087;-69
2022/04/21 11:35:24;;;;;;;4.25;1.95;;;;;;;-150.27;100.00;61272.81;5247127;28;20033;-70
2022/04/21 11:37:59;;;;;;;3.63;1.52;;;;;;;-150.27;100.00;61272.81;5242478;28;20028;-70
2022/04/21 11:40:35;;;;;;;5.70;1.75;;;;;;;-150.27;100.00;61272.81;5239662;28;20029;-69
2022/04/21 11:43:16;;;;;;;7.57;1.77;;;;;;;-150.27;100.00;61272.81;5243656;28;20100;-70
2022/04/21 11:46:00;;;;;;;4.82;1.90;;;;;;;-150.27;100.00;61272.81;5245972;28;20025;-70
2022/04/21 11:48:34;;;;;;;3.50;1.42;;;;;;;-150.27;100.00;61272.81;5243992;28;20383;-70
2022/04/21 11:51:06;;;;;;;7.28;1.88;;;;;;;-150.27;100.00;61272.81;5227749;28;20535;-68
2022/04/21 11:53:42;;;;;;;6.47;1.58;;;;;;;-150.27;100.00;61272.81;5245790;28;20021;-71
2022/04/21 11:56:16;;;;;;;2.67;1.50;;;;;;;-150.27;100.00;61272.81;5248201;28;20036;-70
2022/04/21 11:58:47;;;;;;;;;;;;;;;-150.27;100.00;61272.81;5248477;28;20048;-70
2022/04/21 12:07:02;;;;;;;3.50;1.63;;;;;;;-150.27;100.00;61272.81;5246626;28;20495;-70
2022/04/21 12:09:34;;;;;;;3.80;1.77;;;;;;;-150.27;100.00;61272.81;5207674;28;20026;-70
2022/04/21 12:12:08;;;;;;;7.50;2.25;;;;;;;-150.27;100.00;61272.81;5174880;28;20040;-70
2022/04/21 12:14:41;;;;;;;5.35;1.80;;;;;;;-150.27;100.00;61272.81;5247700;28;20021;-70
2022/04/21 12:17:12;;;;;;;5.97;2.13;;;;;;;-150.27;100.00;61272.81;5246775;28;20021;-69